createdAt,value
2023-02-06T00:00:53.165Z,0.46
2023-02-06T00:03:20.482Z,0.47
2023-02-06T00:05:58.409Z,0.46
2023-02-06T00:08:26.423Z,0.46
2023-02-06T00:10:53.295Z,0.46
2023-02-06T00:13:20.244Z,0.46
2023-02-06T00:15:47.098Z,0.46
2023-02-06T00:18:13.806Z,0.47
2023-02-06T00:20:40.414Z,0.48
2023-02-06T00:23:07.095Z,0.48
2023-02-06T00:25:33.998Z,0.50
2023-02-06T00:28:00.741Z,0.47
2023-02-06T00:30:27.455Z,0.49
2023-02-06T00:32:54.117Z,0.47
2023-02-06T00:35:20.902Z,0.46
2023-02-06T00:37:47.576Z,0.44
2023-02-06T00:40:14.196Z,0.46
2023-02-06T00:42:40.856Z,0.44
2023-02-06T00:45:08.337Z,0.42
2023-02-06T00:47:35.619Z,0.44
2023-02-06T00:50:03.084Z,0.49
2023-02-06T00:52:29.650Z,0.50
2023-02-06T00:54:56.853Z,0.49
2023-02-06T00:57:23.537Z,0.49
2023-02-06T00:59:50.228Z,0.52
2023-02-06T01:02:16.828Z,0.52
2023-02-06T01:04:43.426Z,0.53
2023-02-06T01:07:10.014Z,0.50
2023-02-06T01:09:36.735Z,0.49
2023-02-06T01:12:03.474Z,0.49
2023-02-06T01:14:30.167Z,0.48
2023-02-06T01:16:56.868Z,0.44
2023-02-06T01:19:23.501Z,0.47
2023-02-06T01:21:50.122Z,0.47
2023-02-06T01:24:16.758Z,0.49
2023-02-06T01:26:43.581Z,0.50
2023-02-06T01:29:10.241Z,0.50
2023-02-06T01:31:36.908Z,0.53
2023-02-06T01:34:03.737Z,0.52
2023-02-06T01:36:30.366Z,0.52
2023-02-06T01:38:57.042Z,0.52
2023-02-06T01:41:24.120Z,0.46
2023-02-06T01:44:12.583Z,0.46
2023-02-06T01:46:41.428Z,0.47
2023-02-06T01:49:13.766Z,0.50
2023-02-06T01:51:40.970Z,0.49
2023-02-06T01:54:09.299Z,0.52
2023-02-06T01:56:47.116Z,0.54
2023-02-06T01:59:14.069Z,0.54
2023-02-06T02:01:41.847Z,0.53
2023-02-06T02:04:14.911Z,0.53
2023-02-06T02:06:41.933Z,0.54
2023-02-06T02:09:09.310Z,0.54
2023-02-06T02:11:38.383Z,0.56
2023-02-06T02:14:08.127Z,0.55
2023-02-06T02:16:37.515Z,0.56
2023-02-06T02:19:22.402Z,0.53
2023-02-06T02:22:10.422Z,0.46
2023-02-06T02:25:07.782Z,0.49
2023-02-06T02:27:44.513Z,0.51
2023-02-06T02:30:29.818Z,0.52
2023-02-06T02:33:02.448Z,0.45
2023-02-06T02:35:32.295Z,0.43
2023-02-06T02:38:13.247Z,0.45
2023-02-06T02:41:18.366Z,0.45
2023-02-06T02:43:58.245Z,0.48
2023-02-06T02:46:42.839Z,0.46
2023-02-06T02:49:13.958Z,0.42
2023-02-06T02:51:42.088Z,0.37
2023-02-06T02:54:09.528Z,0.37
2023-02-06T02:56:36.576Z,0.39
2023-02-06T02:59:12.087Z,0.40
2023-02-06T03:01:48.560Z,0.44
2023-02-06T03:04:27.599Z,0.46
2023-02-06T03:07:26.518Z,0.48
2023-02-06T03:10:04.948Z,0.47
2023-02-06T03:12:46.746Z,0.51
2023-02-06T03:15:26.651Z,0.54
2023-02-06T03:18:16.597Z,0.52
2023-02-06T03:20:48.055Z,0.54
2023-02-06T03:23:25.628Z,0.55
2023-02-06T03:25:56.412Z,0.55
2023-02-06T03:28:31.741Z,0.52
2023-02-06T03:31:00.986Z,0.52
2023-02-06T03:33:34.262Z,0.54
2023-02-06T03:36:01.246Z,0.51
2023-02-06T03:38:28.306Z,0.52
2023-02-06T03:40:58.024Z,0.52
2023-02-06T03:43:27.356Z,0.51
2023-02-06T03:45:56.647Z,0.44
2023-02-06T03:48:37.956Z,0.44
2023-02-06T03:51:11.676Z,0.47
2023-02-06T03:53:39.572Z,0.50
2023-02-06T03:56:15.817Z,0.52
2023-02-06T03:58:42.449Z,0.54
2023-02-06T04:01:10.999Z,0.56
2023-02-06T04:03:37.659Z,0.54
2023-02-06T04:06:04.314Z,0.50
2023-02-06T04:08:30.943Z,0.53
2023-02-06T04:10:57.616Z,0.56
2023-02-06T04:13:24.265Z,0.60
2023-02-06T04:15:50.948Z,0.59
2023-02-06T04:18:17.607Z,0.61
2023-02-06T04:20:44.221Z,0.62
2023-02-06T04:23:10.804Z,0.66
2023-02-06T04:25:37.663Z,0.67
2023-02-06T04:28:04.743Z,0.66
2023-02-06T04:30:31.378Z,0.62
2023-02-06T04:32:58.003Z,0.59
2023-02-06T04:35:24.647Z,0.58
2023-02-06T04:37:51.402Z,0.57
2023-02-06T04:40:18.259Z,0.60
2023-02-06T04:42:44.968Z,0.58
2023-02-06T04:45:11.680Z,0.59
2023-02-06T04:47:38.722Z,0.58
2023-02-06T04:50:06.059Z,0.56
2023-02-06T04:52:32.726Z,0.56
2023-02-06T04:54:59.304Z,0.59
2023-02-06T04:57:26.869Z,0.58
2023-02-06T04:59:53.579Z,0.56
2023-02-06T05:02:20.196Z,0.58
2023-02-06T05:04:46.799Z,0.58
2023-02-06T05:07:13.386Z,0.58
2023-02-06T05:09:40.113Z,0.59
2023-02-06T05:12:06.800Z,0.61
2023-02-06T05:14:33.407Z,0.62
2023-02-06T05:17:00.016Z,0.64
2023-02-06T05:19:26.700Z,0.64
2023-02-06T05:21:53.336Z,0.59
2023-02-06T05:24:19.983Z,0.56
2023-02-06T05:26:46.778Z,0.56
2023-02-06T05:29:13.472Z,0.58
2023-02-06T05:31:40.444Z,0.58
2023-02-06T05:34:07.139Z,0.59
2023-02-06T05:36:33.791Z,0.60
2023-02-06T05:39:00.388Z,0.62
2023-02-06T05:41:27.087Z,0.60
2023-02-06T05:43:53.725Z,0.61
2023-02-06T05:46:20.366Z,0.62
2023-02-06T05:48:47.054Z,0.66
2023-02-06T05:51:13.715Z,0.71
2023-02-06T05:53:40.371Z,0.73
2023-02-06T05:56:07.253Z,0.75
2023-02-06T05:58:34.220Z,0.74
2023-02-06T06:01:00.885Z,0.70
2023-02-06T06:03:27.616Z,0.68
2023-02-06T06:05:54.393Z,0.67
2023-02-06T06:08:21.707Z,0.67
2023-02-06T06:10:51.576Z,0.67
2023-02-06T06:13:19.006Z,0.71
2023-02-06T06:15:45.678Z,0.68
2023-02-06T06:18:12.364Z,0.66
2023-02-06T06:20:38.959Z,0.66
2023-02-06T06:23:05.614Z,0.66
2023-02-06T06:25:32.248Z,0.66
2023-02-06T06:27:58.874Z,0.64
2023-02-06T06:30:25.492Z,0.64
2023-02-06T06:32:52.599Z,0.62
2023-02-06T06:35:19.703Z,0.58
2023-02-06T06:37:46.314Z,0.58
2023-02-06T06:40:12.983Z,0.61
2023-02-06T06:42:39.776Z,0.64
2023-02-06T06:45:07.562Z,0.59
2023-02-06T06:47:34.219Z,0.57
2023-02-06T06:50:00.832Z,0.56
2023-02-06T06:52:27.451Z,0.55
2023-02-06T06:54:54.521Z,0.54
2023-02-06T06:57:22.523Z,0.56
2023-02-06T06:59:49.586Z,0.52
2023-02-06T07:02:16.903Z,0.52
2023-02-06T07:04:44.015Z,0.53
2023-02-06T07:07:10.714Z,0.53
2023-02-06T07:09:37.435Z,0.54
2023-02-06T07:12:04.429Z,0.52
2023-02-06T07:14:31.164Z,0.47
2023-02-06T07:16:59.269Z,0.37
2023-02-06T07:19:25.980Z,0.38
2023-02-06T07:21:52.612Z,0.36
2023-02-06T07:24:19.290Z,0.30
2023-02-06T07:26:45.943Z,0.31
2023-02-06T07:29:12.607Z,0.31
2023-02-06T07:31:39.238Z,0.31
2023-02-06T07:34:05.952Z,0.31
2023-02-06T07:36:32.655Z,0.35
2023-02-06T07:38:59.324Z,0.38
2023-02-06T07:41:25.971Z,0.39
2023-02-06T07:43:54.273Z,0.35
2023-02-06T07:46:21.167Z,0.38
2023-02-06T07:48:47.953Z,0.48
2023-02-06T07:51:14.571Z,0.53
2023-02-06T07:53:41.245Z,0.59
2023-02-06T07:56:16.870Z,0.65
2023-02-06T07:58:43.648Z,0.72
2023-02-06T08:01:10.823Z,0.80
2023-02-06T08:03:37.696Z,0.89
2023-02-06T08:06:09.376Z,0.93
2023-02-06T08:08:36.076Z,0.99
2023-02-06T08:11:07.164Z,1.00
2023-02-06T08:13:35.113Z,0.99
2023-02-06T08:16:11.502Z,1.04
2023-02-06T08:18:38.901Z,1.07
2023-02-06T08:21:07.742Z,1.10
2023-02-06T08:23:34.392Z,1.14
2023-02-06T08:26:15.964Z,1.21
2023-02-06T08:28:44.536Z,1.17
2023-02-06T08:31:38.608Z,1.20
2023-02-06T08:34:06.931Z,1.18
2023-02-06T08:36:34.051Z,1.20
2023-02-06T08:39:02.738Z,1.25
2023-02-06T08:41:32.795Z,1.25
2023-02-06T08:44:02.229Z,1.31
2023-02-06T08:46:29.685Z,1.36
2023-02-06T08:48:58.571Z,1.32
2023-02-06T08:51:28.470Z,1.34
2023-02-06T08:53:59.879Z,1.36
2023-02-06T08:56:27.805Z,1.43
2023-02-06T08:58:54.972Z,1.46
2023-02-06T09:01:21.780Z,1.46
2023-02-06T09:03:48.849Z,1.52
2023-02-06T09:06:16.686Z,1.54
2023-02-06T09:08:44.657Z,1.57
2023-02-06T09:11:17.032Z,1.54
2023-02-06T09:13:49.248Z,1.53
2023-02-06T09:16:19.308Z,1.62
2023-02-06T09:18:46.244Z,1.71
2023-02-06T09:21:18.427Z,1.78
2023-02-06T09:23:50.209Z,1.82
2023-02-06T09:26:20.452Z,1.84
2023-02-06T09:28:47.506Z,1.79
2023-02-06T09:31:14.375Z,1.76
2023-02-06T09:33:41.058Z,1.70
2023-02-06T09:36:13.328Z,1.59
2023-02-06T09:38:43.218Z,1.61
2023-02-06T09:41:21.318Z,1.62
2023-02-06T09:43:54.640Z,1.55
2023-02-06T09:46:28.233Z,1.54
2023-02-06T09:48:57.390Z,1.63
2023-02-06T09:51:40.044Z,1.69
2023-02-06T09:54:23.220Z,1.67
2023-02-06T09:56:50.008Z,1.66
2023-02-06T09:59:28.696Z,1.77
2023-02-06T10:02:13.664Z,1.75
2023-02-06T10:04:58.587Z,1.70
2023-02-06T10:07:31.043Z,1.71
2023-02-06T10:10:47.531Z,1.82
2023-02-06T10:13:32.709Z,1.80
2023-02-06T10:16:32.513Z,1.76
2023-02-06T10:19:09.615Z,1.81
2023-02-06T10:21:42.625Z,1.74
2023-02-06T10:24:36.746Z,1.78
2023-02-06T10:27:09.052Z,1.85
2023-02-06T10:29:36.481Z,1.78
2023-02-06T10:32:40.360Z,1.87
2023-02-06T10:35:31.778Z,1.95
2023-02-06T10:38:16.528Z,2.00
2023-02-06T10:41:04.369Z,1.97
2023-02-06T10:43:44.025Z,1.93
2023-02-06T10:46:29.218Z,1.96
2023-02-06T10:49:05.475Z,1.98
2023-02-06T10:51:45.604Z,1.96
2023-02-06T10:54:18.434Z,1.94
2023-02-06T10:56:47.862Z,1.89
2023-02-06T10:59:14.265Z,1.78
2023-02-06T11:01:44.128Z,1.70
2023-02-06T11:04:15.512Z,1.70
2023-02-06T11:06:43.223Z,1.75
2023-02-06T11:09:10.704Z,1.72
2023-02-06T11:11:40.486Z,1.82
2023-02-06T11:14:25.241Z,1.82
2023-02-06T11:16:52.732Z,1.86
2023-02-06T11:19:26.226Z,1.87
2023-02-06T11:22:17.271Z,1.86
2023-02-06T11:25:04.547Z,1.94
2023-02-06T11:27:33.672Z,1.93
2023-02-06T11:30:07.794Z,1.92
2023-02-06T11:32:36.761Z,1.93
2023-02-06T11:35:15.201Z,1.88
2023-02-06T11:37:42.146Z,1.83
2023-02-06T11:40:21.068Z,1.83
2023-02-06T11:42:49.872Z,1.88
2023-02-06T11:45:28.496Z,1.81
2023-02-06T11:47:55.294Z,1.85
2023-02-06T11:50:28.755Z,1.81
2023-02-06T11:53:09.291Z,1.82
2023-02-06T11:55:38.406Z,1.81
2023-02-06T11:58:14.099Z,1.77
2023-02-06T12:00:41.765Z,1.79
2023-02-06T12:03:26.833Z,1.80
2023-02-06T12:05:55.499Z,1.77
2023-02-06T12:08:26.632Z,1.81
2023-02-06T12:11:00.186Z,1.70
2023-02-06T12:13:33.820Z,1.82
2023-02-06T12:16:04.095Z,1.80
2023-02-06T12:18:37.070Z,1.78
2023-02-06T12:21:08.528Z,1.87
2023-02-06T12:23:40.878Z,1.80
2023-02-06T12:26:12.077Z,1.84
2023-02-06T12:28:50.745Z,1.83
2023-02-06T12:31:26.040Z,1.80
2023-02-06T12:34:00.737Z,1.79
2023-02-06T12:37:10.430Z,1.80
2023-02-06T12:39:37.422Z,1.82
2023-02-06T12:42:12.563Z,1.85
2023-02-06T12:44:57.484Z,1.84
2023-02-06T12:47:27.458Z,1.82
2023-02-06T12:50:06.170Z,1.81
2023-02-06T12:52:48.258Z,1.79
2023-02-06T12:55:21.237Z,1.80
2023-02-06T12:57:47.988Z,1.89
2023-02-06T13:00:32.800Z,1.92
2023-02-06T13:03:26.084Z,1.96
2023-02-06T13:06:34.205Z,1.99
2023-02-06T13:09:02.270Z,1.99
2023-02-06T13:11:35.883Z,1.92
2023-02-06T13:14:19.519Z,1.84
2023-02-06T13:16:55.306Z,1.84
2023-02-06T13:19:39.172Z,1.94
2023-02-06T13:22:13.093Z,1.94
2023-02-06T13:24:50.251Z,1.98
2023-02-06T13:27:40.218Z,2.01
2023-02-06T13:30:31.567Z,1.99
2023-02-06T13:33:17.550Z,1.98
2023-02-06T13:35:56.386Z,2.00
2023-02-06T13:38:22.938Z,1.93
2023-02-06T13:41:13.123Z,1.84
2023-02-06T13:44:05.229Z,1.85
2023-02-06T13:46:37.918Z,1.85
2023-02-06T13:49:25.972Z,1.81
2023-02-06T13:52:18.770Z,1.69
2023-02-06T13:54:55.374Z,1.70
2023-02-06T13:57:43.709Z,1.63
2023-02-06T14:00:25.799Z,1.55
2023-02-06T14:03:06.130Z,1.53
2023-02-06T14:05:51.641Z,1.55
2023-02-06T14:08:38.337Z,1.55
2023-02-06T14:11:23.392Z,1.48
2023-02-06T14:14:14.650Z,1.45
2023-02-06T14:16:52.579Z,1.44
2023-02-06T14:19:28.886Z,1.40
2023-02-06T14:22:13.946Z,1.42
2023-02-06T14:25:17.585Z,1.45
2023-02-06T14:27:56.074Z,1.37
2023-02-06T14:30:50.468Z,1.35
2023-02-06T14:33:44.735Z,1.39
2023-02-06T14:36:11.274Z,1.33
2023-02-06T14:39:15.088Z,1.34
2023-02-06T14:41:42.254Z,1.32
2023-02-06T14:44:13.190Z,1.38
2023-02-06T14:46:42.136Z,1.34
2023-02-06T14:49:17.408Z,1.25
2023-02-06T14:51:49.669Z,1.31
2023-02-06T14:54:34.357Z,1.36
2023-02-06T14:57:05.600Z,1.38
2023-02-06T14:59:32.988Z,1.34
2023-02-06T15:02:11.384Z,1.24
2023-02-06T15:04:46.294Z,1.25
2023-02-06T15:07:24.130Z,1.23
2023-02-06T15:10:01.199Z,1.20
2023-02-06T15:12:29.222Z,1.14
2023-02-06T15:15:02.805Z,1.14
2023-02-06T15:17:31.180Z,1.14
2023-02-06T15:20:23.229Z,1.09
2023-02-06T15:22:51.093Z,1.05
2023-02-06T15:25:45.200Z,1.03
2023-02-06T15:28:18.982Z,1.06
2023-02-06T15:30:46.657Z,1.04
2023-02-06T15:33:24.127Z,1.01
2023-02-06T15:35:53.217Z,0.96
2023-02-06T15:38:22.009Z,0.98
2023-02-06T15:40:56.040Z,0.98
2023-02-06T15:43:25.470Z,0.87
2023-02-06T15:45:57.112Z,0.86
2023-02-06T15:48:51.391Z,0.81
2023-02-06T15:51:29.594Z,0.77
2023-02-06T15:54:19.545Z,0.73
2023-02-06T15:57:05.825Z,0.76
2023-02-06T15:59:39.854Z,0.75
2023-02-06T16:02:08.053Z,0.71
2023-02-06T16:04:38.487Z,0.74
2023-02-06T16:07:23.659Z,0.69
2023-02-06T16:09:59.764Z,0.72
2023-02-06T16:12:26.495Z,0.69
2023-02-06T16:15:00.907Z,0.63
2023-02-06T16:17:33.993Z,0.65
2023-02-06T16:20:04.580Z,0.65
2023-02-06T16:22:38.325Z,0.64
2023-02-06T16:25:13.845Z,0.69
2023-02-06T16:27:45.853Z,0.63
2023-02-06T16:30:35.441Z,0.61
2023-02-06T16:33:26.969Z,0.59
2023-02-06T16:35:53.577Z,0.60
2023-02-06T16:38:20.207Z,0.64
2023-02-06T16:40:49.660Z,0.59
2023-02-06T16:43:16.311Z,0.60
2023-02-06T16:45:43.001Z,0.65
2023-02-06T16:48:14.319Z,0.64
2023-02-06T16:50:42.034Z,0.61
2023-02-06T16:53:20.253Z,0.63
2023-02-06T16:55:47.436Z,0.65
2023-02-06T16:58:19.178Z,0.58
2023-02-06T17:00:46.815Z,0.59
2023-02-06T17:03:16.309Z,0.60
2023-02-06T17:05:47.760Z,0.61
2023-02-06T17:08:20.580Z,0.64
2023-02-06T17:10:48.103Z,0.57
2023-02-06T17:13:17.184Z,0.53
2023-02-06T17:15:44.236Z,0.53
2023-02-06T17:18:14.029Z,0.55
2023-02-06T17:20:42.765Z,0.53
2023-02-06T17:23:12.761Z,0.56
2023-02-06T17:25:40.723Z,0.53
2023-02-06T17:28:09.264Z,0.53
2023-02-06T17:30:38.029Z,0.54
2023-02-06T17:33:06.354Z,0.52
2023-02-06T17:35:33.878Z,0.56
2023-02-06T17:38:00.505Z,0.54
2023-02-06T17:40:30.374Z,0.61
2023-02-06T17:42:59.016Z,0.53
2023-02-06T17:45:26.388Z,0.50
2023-02-06T17:47:53.482Z,0.46
2023-02-06T17:50:22.884Z,0.50
2023-02-06T17:52:52.689Z,0.47
2023-02-06T17:55:19.514Z,0.41
2023-02-06T17:57:46.085Z,0.32
2023-02-06T18:00:15.827Z,0.34
2023-02-06T18:02:42.855Z,0.32
2023-02-06T18:05:10.224Z,0.39
2023-02-06T18:07:40.287Z,0.39
2023-02-06T18:10:07.910Z,0.36
2023-02-06T18:12:34.719Z,0.39
2023-02-06T18:15:01.551Z,0.41
2023-02-06T18:17:28.152Z,0.41
2023-02-06T18:19:54.828Z,0.43
2023-02-06T18:22:22.248Z,0.43
2023-02-06T18:24:50.163Z,0.53
2023-02-06T18:27:17.942Z,0.46
2023-02-06T18:29:50.547Z,0.50
2023-02-06T18:32:18.570Z,0.52
2023-02-06T18:34:46.042Z,0.52
2023-02-06T18:37:12.763Z,0.48
2023-02-06T18:39:39.721Z,0.51
2023-02-06T18:42:25.237Z,0.42
2023-02-06T18:44:51.933Z,0.40
2023-02-06T18:47:19.783Z,0.46
2023-02-06T18:49:46.891Z,0.43
2023-02-06T18:52:14.422Z,0.42
2023-02-06T18:54:41.130Z,0.46
2023-02-06T18:57:08.367Z,0.41
2023-02-06T18:59:35.240Z,0.33
2023-02-06T19:02:02.921Z,0.27
2023-02-06T19:04:29.848Z,0.33
2023-02-06T19:06:56.542Z,0.38
2023-02-06T19:09:23.201Z,0.36
2023-02-06T19:11:49.798Z,0.32
2023-02-06T19:14:18.087Z,0.28
2023-02-06T19:16:47.472Z,0.25
2023-02-06T19:19:14.618Z,0.19
2023-02-06T19:21:43.378Z,0.23
2023-02-06T19:24:15.183Z,0.22
2023-02-06T19:26:42.248Z,0.22
2023-02-06T19:29:09.677Z,0.19
2023-02-06T19:31:39.214Z,0.19
2023-02-06T19:34:06.662Z,0.20
2023-02-06T19:36:33.433Z,0.18
2023-02-06T19:39:03.037Z,0.21
2023-02-06T19:41:32.753Z,0.18
2023-02-06T19:44:04.743Z,0.19
2023-02-06T19:46:31.839Z,0.16
2023-02-06T19:48:58.622Z,0.18
2023-02-06T19:51:28.762Z,0.22
2023-02-06T19:53:56.970Z,0.22
2023-02-06T19:56:26.960Z,0.19
2023-02-06T19:59:04.865Z,0.20
2023-02-06T20:01:32.536Z,0.25
2023-02-06T20:04:00.683Z,0.23
2023-02-06T20:06:29.476Z,0.23
2023-02-06T20:08:57.228Z,0.21
2023-02-06T20:11:23.987Z,0.27
2023-02-06T20:13:55.606Z,0.37
2023-02-06T20:16:25.732Z,0.31
2023-02-06T20:18:53.876Z,0.29
2023-02-06T20:21:23.672Z,0.36
2023-02-06T20:23:50.813Z,0.37
2023-02-06T20:26:19.746Z,0.37
2023-02-06T20:28:47.325Z,0.40
2023-02-06T20:31:16.225Z,0.33
2023-02-06T20:33:43.487Z,0.28
2023-02-06T20:36:14.765Z,0.22
2023-02-06T20:38:42.203Z,0.18
2023-02-06T20:41:10.079Z,0.19
2023-02-06T20:43:37.226Z,0.14
2023-02-06T20:46:06.516Z,0.06
2023-02-06T20:48:36.377Z,0.07
2023-02-06T20:51:05.919Z,0.18
2023-02-06T20:53:32.637Z,0.14
2023-02-06T20:55:59.384Z,0.12
2023-02-06T20:58:26.124Z,0.00
2023-02-06T21:00:53.718Z,0.02
2023-02-06T21:03:20.638Z,-0.07
2023-02-06T21:05:57.685Z,-0.09
2023-02-06T21:08:25.617Z,-0.13
2023-02-06T21:10:53.200Z,-0.09
2023-02-06T21:13:20.015Z,-0.11
2023-02-06T21:15:52.606Z,-0.15
2023-02-06T21:18:20.632Z,-0.22
2023-02-06T21:20:47.412Z,-0.25
2023-02-06T21:23:14.295Z,-0.25
2023-02-06T21:25:41.754Z,-0.28
2023-02-06T21:28:09.602Z,-0.30
2023-02-06T21:30:36.774Z,-0.34
2023-02-06T21:33:03.699Z,-0.34
2023-02-06T21:35:32.793Z,-0.45
2023-02-06T21:37:59.898Z,-0.38
2023-02-06T21:40:26.545Z,-0.42
2023-02-06T21:42:53.158Z,-0.44
2023-02-06T21:45:19.898Z,-0.40
2023-02-06T21:47:48.341Z,-0.42
2023-02-06T21:50:15.137Z,-0.44
2023-02-06T21:52:42.389Z,-0.45
2023-02-06T21:55:09.114Z,-0.54
2023-02-06T21:57:35.764Z,-0.49
2023-02-06T22:00:02.406Z,-0.54
2023-02-06T22:02:29.119Z,-0.50
2023-02-06T22:04:55.772Z,-0.55
2023-02-06T22:07:22.418Z,-0.58
2023-02-06T22:09:49.092Z,-0.64
2023-02-06T22:12:15.696Z,-0.55
2023-02-06T22:14:42.306Z,-0.50
2023-02-06T22:17:09.001Z,-0.58
2023-02-06T22:19:37.723Z,-0.53
2023-02-06T22:22:04.450Z,-0.61
2023-02-06T22:24:31.196Z,-0.59
2023-02-06T22:26:57.804Z,-0.59
2023-02-06T22:29:24.604Z,-0.64
2023-02-06T22:31:51.347Z,-0.67
2023-02-06T22:34:20.998Z,-0.68
2023-02-06T22:36:50.604Z,-0.67
2023-02-06T22:39:17.832Z,-0.67
2023-02-06T22:41:45.856Z,-0.69
2023-02-06T22:44:16.717Z,-0.67
2023-02-06T22:46:50.108Z,-0.73
2023-02-06T22:49:17.492Z,-0.74
2023-02-06T22:51:44.754Z,-0.79
2023-02-06T22:54:12.672Z,-0.77
2023-02-06T22:56:41.170Z,-0.73
2023-02-06T22:59:37.206Z,-0.73
2023-02-06T23:02:04.354Z,-0.74
2023-02-06T23:04:36.196Z,-0.87
2023-02-06T23:07:02.963Z,-0.83
2023-02-06T23:09:35.282Z,-0.84
2023-02-06T23:12:03.044Z,-0.88
2023-02-06T23:14:32.093Z,-0.96
2023-02-06T23:17:02.412Z,-0.93
2023-02-06T23:19:29.568Z,-0.87
2023-02-06T23:21:56.287Z,-0.92
2023-02-06T23:24:23.042Z,-0.88
2023-02-06T23:26:51.009Z,-0.93
2023-02-06T23:29:21.540Z,-0.92
2023-02-06T23:31:49.132Z,-0.93
2023-02-06T23:34:17.635Z,-0.96
2023-02-06T23:36:45.154Z,-0.98
2023-02-06T23:39:12.053Z,-0.95
2023-02-06T23:41:38.883Z,-0.96
2023-02-06T23:44:08.119Z,-0.98
2023-02-06T23:46:36.735Z,-0.96
2023-02-06T23:49:04.331Z,-0.99
2023-02-06T23:51:31.989Z,-0.98
2023-02-06T23:53:59.287Z,-0.90
2023-02-06T23:56:28.545Z,-0.87
2023-02-06T23:58:57.333Z,-0.93
